VEAT/IXA METAR and TAF weather

Enter ICAO airport designator
Station Type Date Time Source
VEAT METAR 2020/04/05 06:00 UTC NOAA

VEAT 050600Z 26003KT 4500 HZ SCT018 35/24 Q1012 NOSIG


Station Type Date Time Source
VEAT Decoded METAR 2020/04/05 06:00 UTC NOAA

Agartala, India (VEAT) 23-53N 091-15E 16M
Apr 05, 2020 - 02:00 AM EDT / 2020.04.05 0600 UTC
Wind: from the W (260 degrees) at 3 MPH (3 KT):0
Visibility: 2 mile(s):0
Sky conditions: partly cloudy
Weather: haze
Temperature: 95 F (35 C)
Heat index: 107.4 F (41.9 C):1
Dew Point: 75 F (24 C)
Relative Humidity: 53%
Pressure (altimeter): 29.88 in. Hg (1012 hPa)
ob: VEAT 050600Z 26003KT 4500 HZ SCT018 35/24 Q1012 NOSIG
cycle: 6

Station Type Date Time Source
VEAT TAF 2013/07/19 12:00 UTC NOAA

TAF VEAT 190900Z 1912/1921 16008KT 5000 HZ SCT018 FEW030CB BKN100
TEMPO 1912/1921 3000 -TSRA SCT015 FEW025CB OVC090

Example: see airport list